Fort Loudon, Pennsylvania
Current Conditions -  °F | °C
As of 2:53 PM on Thursday 23 Oct 2014 (Local Time) from KHGR Reporting Station
Overcast Overcast  
Wind Chill: 59°   Ceiling: 4000
Heat Index: 59°   Visibility: 10mi
Dew Point: 43°   Wind: 22mph
Humidity: 55%   Direction: 330°NNW
Pressure: 29.9"   Gusts: 28mph
Location:  39.91°N, 77.9°W
Report Text: KHGR 231853Z 33019G24KT 10SM OVC040 15/06 A2990 RMK AO2 PK WND 31026/1812 SLP137 T01500061
Loading
Personal Weather Stations






























Interactive Weather Map
Tropical Storm Tracking
New forecast layout! Learn more

10-Day Weather Forecast

Advertisements
Track Severe Weather on mobile